sensor_id;sensor_type;location;lat;lon;timestamp;P1;durP1;ratioP1;P2;durP2;ratioP2
9398;SDS011;4739;49.334;8.792;2022-09-13T00:01:31;5.17;;;4.30;;
9398;SDS011;4739;49.334;8.792;2022-09-13T00:03:57;4.33;;;3.93;;
9398;SDS011;4739;49.334;8.792;2022-09-13T00:06:23;5.20;;;4.27;;
9398;SDS011;4739;49.334;8.792;2022-09-13T00:08:49;4.37;;;3.60;;
9398;SDS011;4739;49.334;8.792;2022-09-13T00:11:21;4.53;;;4.10;;
9398;SDS011;4739;49.334;8.792;2022-09-13T00:13:48;5.20;;;4.37;;
9398;SDS011;4739;49.334;8.792;2022-09-13T00:16:15;6.67;;;4.10;;
9398;SDS011;4739;49.334;8.792;2022-09-13T00:18:41;5.27;;;4.07;;
9398;SDS011;4739;49.334;8.792;2022-09-13T00:21:11;5.13;;;3.93;;
9398;SDS011;4739;49.334;8.792;2022-09-13T00:23:38;5.13;;;3.80;;
9398;SDS011;4739;49.334;8.792;2022-09-13T00:26:09;4.93;;;3.90;;
9398;SDS011;4739;49.334;8.792;2022-09-13T00:28:35;6.30;;;3.90;;
9398;SDS011;4739;49.334;8.792;2022-09-13T00:31:02;5.27;;;4.23;;
9398;SDS011;4739;49.334;8.792;2022-09-13T00:33:29;4.37;;;4.00;;
9398;SDS011;4739;49.334;8.792;2022-09-13T00:35:55;4.43;;;4.03;;
9398;SDS011;4739;49.334;8.792;2022-09-13T00:38:21;4.77;;;4.13;;
9398;SDS011;4739;49.334;8.792;2022-09-13T00:40:47;10.57;;;4.40;;
9398;SDS011;4739;49.334;8.792;2022-09-13T00:43:17;4.40;;;4.00;;
9398;SDS011;4739;49.334;8.792;2022-09-13T00:45:43;4.40;;;4.00;;
9398;SDS011;4739;49.334;8.792;2022-09-13T00:48:13;4.60;;;4.20;;
9398;SDS011;4739;49.334;8.792;2022-09-13T00:50:42;4.30;;;3.90;;
9398;SDS011;4739;49.334;8.792;2022-09-13T00:53:20;5.10;;;3.80;;
9398;SDS011;4739;49.334;8.792;2022-09-13T00:55:50;5.33;;;4.33;;
9398;SDS011;4739;49.334;8.792;2022-09-13T00:58:22;4.70;;;3.67;;
9398;SDS011;4739;49.334;8.792;2022-09-13T01:00:49;6.40;;;3.97;;
9398;SDS011;4739;49.334;8.792;2022-09-13T01:03:16;4.73;;;3.97;;
9398;SDS011;4739;49.334;8.792;2022-09-13T01:05:45;4.70;;;4.20;;
9398;SDS011;4739;49.334;8.792;2022-09-13T01:08:12;5.37;;;4.40;;
9398;SDS011;4739;49.334;8.792;2022-09-13T01:10:46;4.70;;;4.20;;
9398;SDS011;4739;49.334;8.792;2022-09-13T01:13:20;5.43;;;3.87;;
9398;SDS011;4739;49.334;8.792;2022-09-13T01:15:46;4.70;;;4.10;;
9398;SDS011;4739;49.334;8.792;2022-09-13T01:18:12;4.33;;;3.93;;
9398;SDS011;4739;49.334;8.792;2022-09-13T01:26:02;4.40;;;4.00;;
9398;SDS011;4739;49.334;8.792;2022-09-13T01:31:15;4.70;;;3.63;;
9398;SDS011;4739;49.334;8.792;2022-09-13T01:38:58;4.60;;;4.20;;
9398;SDS011;4739;49.334;8.792;2022-09-13T01:41:42;4.73;;;4.27;;
9398;SDS011;4739;49.334;8.792;2022-09-13T01:52:13;5.83;;;4.63;;
9398;SDS011;4739;49.334;8.792;2022-09-13T01:57:39;7.07;;;4.33;;
9398;SDS011;4739;49.334;8.792;2022-09-13T02:00:09;5.13;;;3.77;;
9398;SDS011;4739;49.334;8.792;2022-09-13T02:05:08;6.27;;;4.17;;
9398;SDS011;4739;49.334;8.792;2022-09-13T02:07:36;4.90;;;4.07;;
9398;SDS011;4739;49.334;8.792;2022-09-13T02:10:05;4.40;;;4.00;;
9398;SDS011;4739;49.334;8.792;2022-09-13T02:12:32;4.37;;;3.97;;
9398;SDS011;4739;49.334;8.792;2022-09-13T02:15:02;4.43;;;3.97;;
9398;SDS011;4739;49.334;8.792;2022-09-13T02:17:31;4.87;;;4.30;;
9398;SDS011;4739;49.334;8.792;2022-09-13T02:20:02;7.83;;;4.37;;
9398;SDS011;4739;49.334;8.792;2022-09-13T02:22:32;4.93;;;4.30;;
9398;SDS011;4739;49.334;8.792;2022-09-13T02:25:00;4.27;;;3.87;;
9398;SDS011;4739;49.334;8.792;2022-09-13T02:27:28;5.17;;;4.50;;
9398;SDS011;4739;49.334;8.792;2022-09-13T02:29:57;4.83;;;4.43;;
9398;SDS011;4739;49.334;8.792;2022-09-13T02:34:57;5.23;;;4.50;;
9398;SDS011;4739;49.334;8.792;2022-09-13T02:37:24;4.73;;;3.87;;
9398;SDS011;4739;49.334;8.792;2022-09-13T02:39:53;4.73;;;4.23;;
9398;SDS011;4739;49.334;8.792;2022-09-13T02:42:30;5.30;;;4.33;;
9398;SDS011;4739;49.334;8.792;2022-09-13T02:45:00;4.63;;;4.20;;
9398;SDS011;4739;49.334;8.792;2022-09-13T02:57:20;5.43;;;4.77;;
9398;SDS011;4739;49.334;8.792;2022-09-13T02:59:50;4.67;;;4.27;;
9398;SDS011;4739;49.334;8.792;2022-09-13T03:02:17;4.83;;;4.43;;
9398;SDS011;4739;49.334;8.792;2022-09-13T03:04:44;5.77;;;4.60;;
9398;SDS011;4739;49.334;8.792;2022-09-13T03:07:10;4.47;;;4.07;;
9398;SDS011;4739;49.334;8.792;2022-09-13T03:09:38;4.90;;;4.50;;
9398;SDS011;4739;49.334;8.792;2022-09-13T03:12:11;4.43;;;4.10;;
9398;SDS011;4739;49.334;8.792;2022-09-13T03:14:45;4.97;;;4.33;;
9398;SDS011;4739;49.334;8.792;2022-09-13T03:25:11;5.03;;;3.97;;
9398;SDS011;4739;49.334;8.792;2022-09-13T03:27:45;4.93;;;4.37;;
9398;SDS011;4739;49.334;8.792;2022-09-13T03:30:12;5.90;;;4.10;;
9398;SDS011;4739;49.334;8.792;2022-09-13T03:32:54;4.87;;;4.47;;
9398;SDS011;4739;49.334;8.792;2022-09-13T03:35:33;6.57;;;4.50;;
9398;SDS011;4739;49.334;8.792;2022-09-13T03:38:15;6.10;;;4.70;;
9398;SDS011;4739;49.334;8.792;2022-09-13T03:40:46;6.43;;;4.40;;
9398;SDS011;4739;49.334;8.792;2022-09-13T03:43:25;7.17;;;4.50;;
9398;SDS011;4739;49.334;8.792;2022-09-13T03:48:54;10.23;;;4.70;;
9398;SDS011;4739;49.334;8.792;2022-09-13T03:51:22;4.77;;;4.37;;
9398;SDS011;4739;49.334;8.792;2022-09-13T03:53:51;5.23;;;4.60;;
9398;SDS011;4739;49.334;8.792;2022-09-13T03:56:20;5.70;;;4.80;;
9398;SDS011;4739;49.334;8.792;2022-09-13T03:58:46;6.33;;;4.90;;
9398;SDS011;4739;49.334;8.792;2022-09-13T04:01:13;4.60;;;4.20;;
9398;SDS011;4739;49.334;8.792;2022-09-13T04:03:41;5.90;;;4.43;;
9398;SDS011;4739;49.334;8.792;2022-09-13T04:06:07;6.50;;;4.80;;
9398;SDS011;4739;49.334;8.792;2022-09-13T04:08:32;5.50;;;4.57;;
9398;SDS011;4739;49.334;8.792;2022-09-13T04:10:58;5.63;;;4.37;;
9398;SDS011;4739;49.334;8.792;2022-09-13T04:13:25;4.73;;;4.33;;
9398;SDS011;4739;49.334;8.792;2022-09-13T04:15:51;5.20;;;4.70;;
9398;SDS011;4739;49.334;8.792;2022-09-13T04:18:18;10.40;;;4.90;;
9398;SDS011;4739;49.334;8.792;2022-09-13T04:20:51;5.93;;;4.50;;
9398;SDS011;4739;49.334;8.792;2022-09-13T04:23:18;5.60;;;4.40;;
9398;SDS011;4739;49.334;8.792;2022-09-13T04:25:44;5.00;;;4.33;;
9398;SDS011;4739;49.334;8.792;2022-09-13T04:28:10;7.13;;;5.13;;
9398;SDS011;4739;49.334;8.792;2022-09-13T04:30:36;7.07;;;4.80;;
9398;SDS011;4739;49.334;8.792;2022-09-13T04:33:02;4.93;;;4.27;;
9398;SDS011;4739;49.334;8.792;2022-09-13T04:35:28;5.70;;;4.77;;
9398;SDS011;4739;49.334;8.792;2022-09-13T04:37:54;6.70;;;4.80;;
9398;SDS011;4739;49.334;8.792;2022-09-13T04:40:22;27.90;;;6.03;;
9398;SDS011;4739;49.334;8.792;2022-09-13T04:42:48;16.90;;;5.40;;
9398;SDS011;4739;49.334;8.792;2022-09-13T04:45:14;12.50;;;4.87;;
9398;SDS011;4739;49.334;8.792;2022-09-13T04:47:40;11.70;;;4.80;;
9398;SDS011;4739;49.334;8.792;2022-09-13T04:50:06;5.20;;;4.70;;
9398;SDS011;4739;49.334;8.792;2022-09-13T04:52:33;5.20;;;4.53;;
9398;SDS011;4739;49.334;8.792;2022-09-13T04:54:59;6.37;;;4.43;;
9398;SDS011;4739;49.334;8.792;2022-09-13T04:57:26;7.13;;;4.80;;
9398;SDS011;4739;49.334;8.792;2022-09-13T04:59:52;5.17;;;4.53;;
9398;SDS011;4739;49.334;8.792;2022-09-13T05:02:18;5.03;;;4.60;;
9398;SDS011;4739;49.334;8.792;2022-09-13T05:04:44;6.73;;;4.30;;
9398;SDS011;4739;49.334;8.792;2022-09-13T05:07:10;7.07;;;5.53;;
9398;SDS011;4739;49.334;8.792;2022-09-13T05:09:36;7.70;;;4.43;;
9398;SDS011;4739;49.334;8.792;2022-09-13T05:12:02;6.00;;;4.80;;
9398;SDS011;4739;49.334;8.792;2022-09-13T05:14:28;7.47;;;4.33;;
9398;SDS011;4739;49.334;8.792;2022-09-13T05:16:55;6.73;;;4.27;;
9398;SDS011;4739;49.334;8.792;2022-09-13T05:19:21;9.47;;;4.80;;
9398;SDS011;4739;49.334;8.792;2022-09-13T05:21:46;9.30;;;4.77;;
9398;SDS011;4739;49.334;8.792;2022-09-13T05:24:12;7.83;;;4.97;;
9398;SDS011;4739;49.334;8.792;2022-09-13T05:26:38;5.23;;;4.30;;
9398;SDS011;4739;49.334;8.792;2022-09-13T05:29:05;7.10;;;4.87;;
9398;SDS011;4739;49.334;8.792;2022-09-13T05:31:32;7.13;;;4.93;;
9398;SDS011;4739;49.334;8.792;2022-09-13T05:33:59;7.63;;;4.50;;
9398;SDS011;4739;49.334;8.792;2022-09-13T05:36:26;5.53;;;4.87;;
9398;SDS011;4739;49.334;8.792;2022-09-13T05:38:52;6.57;;;4.27;;
9398;SDS011;4739;49.334;8.792;2022-09-13T05:41:19;7.47;;;4.80;;
9398;SDS011;4739;49.334;8.792;2022-09-13T05:43:45;6.43;;;5.50;;
9398;SDS011;4739;49.334;8.792;2022-09-13T05:46:12;6.93;;;4.67;;
9398;SDS011;4739;49.334;8.792;2022-09-13T05:48:38;8.00;;;4.83;;
9398;SDS011;4739;49.334;8.792;2022-09-13T05:51:22;6.30;;;4.60;;
9398;SDS011;4739;49.334;8.792;2022-09-13T05:53:49;6.23;;;4.57;;
9398;SDS011;4739;49.334;8.792;2022-09-13T05:56:16;5.07;;;4.37;;
9398;SDS011;4739;49.334;8.792;2022-09-13T05:58:44;6.83;;;4.90;;
9398;SDS011;4739;49.334;8.792;2022-09-13T06:01:11;4.73;;;4.40;;
9398;SDS011;4739;49.334;8.792;2022-09-13T06:03:37;6.73;;;4.60;;
9398;SDS011;4739;49.334;8.792;2022-09-13T06:06:03;7.43;;;5.27;;
9398;SDS011;4739;49.334;8.792;2022-09-13T06:08:31;5.77;;;4.70;;
9398;SDS011;4739;49.334;8.792;2022-09-13T06:11:01;6.93;;;4.37;;
9398;SDS011;4739;49.334;8.792;2022-09-13T06:13:28;8.50;;;4.93;;
9398;SDS011;4739;49.334;8.792;2022-09-13T06:15:55;6.53;;;4.77;;
9398;SDS011;4739;49.334;8.792;2022-09-13T06:18:21;8.00;;;5.70;;
9398;SDS011;4739;49.334;8.792;2022-09-13T06:20:49;10.57;;;4.90;;
9398;SDS011;4739;49.334;8.792;2022-09-13T06:23:15;12.13;;;5.80;;
9398;SDS011;4739;49.334;8.792;2022-09-13T06:25:42;7.43;;;5.20;;
9398;SDS011;4739;49.334;8.792;2022-09-13T06:28:08;31.37;;;6.97;;
9398;SDS011;4739;49.334;8.792;2022-09-13T06:30:34;30.13;;;7.27;;
9398;SDS011;4739;49.334;8.792;2022-09-13T06:33:00;24.30;;;6.00;;
9398;SDS011;4739;49.334;8.792;2022-09-13T06:35:26;24.90;;;6.07;;
9398;SDS011;4739;49.334;8.792;2022-09-13T06:37:55;25.23;;;5.97;;
9398;SDS011;4739;49.334;8.792;2022-09-13T06:40:22;18.80;;;5.47;;
9398;SDS011;4739;49.334;8.792;2022-09-13T06:42:48;17.23;;;5.77;;
9398;SDS011;4739;49.334;8.792;2022-09-13T06:45:14;12.87;;;4.90;;
9398;SDS011;4739;49.334;8.792;2022-09-13T06:47:40;16.17;;;5.10;;
9398;SDS011;4739;49.334;8.792;2022-09-13T06:50:06;11.93;;;5.37;;
9398;SDS011;4739;49.334;8.792;2022-09-13T06:52:33;8.13;;;5.00;;
9398;SDS011;4739;49.334;8.792;2022-09-13T06:54:59;11.97;;;4.70;;
9398;SDS011;4739;49.334;8.792;2022-09-13T06:57:25;15.57;;;5.27;;
9398;SDS011;4739;49.334;8.792;2022-09-13T06:59:54;12.93;;;5.43;;
9398;SDS011;4739;49.334;8.792;2022-09-13T07:02:20;6.97;;;5.20;;
9398;SDS011;4739;49.334;8.792;2022-09-13T07:04:46;9.30;;;5.93;;
9398;SDS011;4739;49.334;8.792;2022-09-13T07:07:12;8.47;;;4.90;;
9398;SDS011;4739;49.334;8.792;2022-09-13T07:09:38;7.10;;;5.20;;
9398;SDS011;4739;49.334;8.792;2022-09-13T07:12:06;8.93;;;5.10;;
9398;SDS011;4739;49.334;8.792;2022-09-13T07:14:32;6.00;;;5.03;;
9398;SDS011;4739;49.334;8.792;2022-09-13T07:16:58;6.10;;;4.90;;
9398;SDS011;4739;49.334;8.792;2022-09-13T07:19:25;5.80;;;5.20;;
9398;SDS011;4739;49.334;8.792;2022-09-13T07:21:51;6.30;;;5.60;;
9398;SDS011;4739;49.334;8.792;2022-09-13T07:24:18;6.53;;;4.60;;
9398;SDS011;4739;49.334;8.792;2022-09-13T07:26:44;5.20;;;4.57;;
9398;SDS011;4739;49.334;8.792;2022-09-13T07:29:11;5.77;;;4.80;;
9398;SDS011;4739;49.334;8.792;2022-09-13T07:31:41;5.40;;;4.90;;
9398;SDS011;4739;49.334;8.792;2022-09-13T07:34:10;5.20;;;4.70;;
9398;SDS011;4739;49.334;8.792;2022-09-13T07:36:37;5.50;;;5.03;;
9398;SDS011;4739;49.334;8.792;2022-09-13T07:39:03;5.23;;;4.57;;
9398;SDS011;4739;49.334;8.792;2022-09-13T07:41:29;5.30;;;4.80;;
9398;SDS011;4739;49.334;8.792;2022-09-13T07:43:56;5.73;;;5.20;;
9398;SDS011;4739;49.334;8.792;2022-09-13T07:48:55;7.13;;;5.07;;
9398;SDS011;4739;49.334;8.792;2022-09-13T07:51:25;6.50;;;4.67;;
9398;SDS011;4739;49.334;8.792;2022-09-13T07:53:53;7.90;;;4.33;;
9398;SDS011;4739;49.334;8.792;2022-09-13T07:56:21;5.13;;;4.73;;
9398;SDS011;4739;49.334;8.792;2022-09-13T07:58:48;5.53;;;4.47;;
9398;SDS011;4739;49.334;8.792;2022-09-13T08:03:43;5.67;;;4.90;;
9398;SDS011;4739;49.334;8.792;2022-09-13T08:06:10;4.57;;;4.10;;
9398;SDS011;4739;49.334;8.792;2022-09-13T08:08:36;5.73;;;4.07;;
9398;SDS011;4739;49.334;8.792;2022-09-13T08:11:03;4.80;;;3.83;;
9398;SDS011;4739;49.334;8.792;2022-09-13T08:13:29;4.57;;;4.10;;
9398;SDS011;4739;49.334;8.792;2022-09-13T08:16:05;4.60;;;4.20;;
9398;SDS011;4739;49.334;8.792;2022-09-13T08:18:31;4.77;;;4.37;;
9398;SDS011;4739;49.334;8.792;2022-09-13T08:20:59;5.13;;;4.63;;
9398;SDS011;4739;49.334;8.792;2022-09-13T08:23:25;5.83;;;4.27;;
9398;SDS011;4739;49.334;8.792;2022-09-13T08:25:52;4.70;;;4.20;;
9398;SDS011;4739;49.334;8.792;2022-09-13T08:28:19;6.33;;;4.63;;
9398;SDS011;4739;49.334;8.792;2022-09-13T08:30:46;5.13;;;4.67;;
9398;SDS011;4739;49.334;8.792;2022-09-13T08:33:12;5.97;;;4.10;;
9398;SDS011;4739;49.334;8.792;2022-09-13T08:35:38;5.83;;;4.73;;
9398;SDS011;4739;49.334;8.792;2022-09-13T08:38:04;4.77;;;4.13;;
9398;SDS011;4739;49.334;8.792;2022-09-13T08:40:32;5.93;;;3.93;;
9398;SDS011;4739;49.334;8.792;2022-09-13T08:46:04;4.93;;;3.77;;
9398;SDS011;4739;49.334;8.792;2022-09-13T08:48:34;6.63;;;3.87;;
9398;SDS011;4739;49.334;8.792;2022-09-13T08:51:08;4.60;;;4.20;;
9398;SDS011;4739;49.334;8.792;2022-09-13T08:53:43;6.93;;;4.30;;
9398;SDS011;4739;49.334;8.792;2022-09-13T08:56:10;6.67;;;3.93;;
9398;SDS011;4739;49.334;8.792;2022-09-13T08:58:47;7.57;;;3.50;;
9398;SDS011;4739;49.334;8.792;2022-09-13T09:06:41;5.47;;;4.17;;
9398;SDS011;4739;49.334;8.792;2022-09-13T09:09:09;5.67;;;3.73;;
9398;SDS011;4739;49.334;8.792;2022-09-13T09:11:58;7.27;;;4.17;;
9398;SDS011;4739;49.334;8.792;2022-09-13T09:14:31;11.40;;;4.00;;
9398;SDS011;4739;49.334;8.792;2022-09-13T09:16:58;5.67;;;3.67;;
9398;SDS011;4739;49.334;8.792;2022-09-13T09:21:58;7.00;;;3.77;;
9398;SDS011;4739;49.334;8.792;2022-09-13T09:24:26;4.77;;;3.43;;
9398;SDS011;4739;49.334;8.792;2022-09-13T09:26:52;5.93;;;3.73;;
9398;SDS011;4739;49.334;8.792;2022-09-13T09:29:25;4.13;;;3.73;;
9398;SDS011;4739;49.334;8.792;2022-09-13T09:39:16;6.60;;;4.00;;
9398;SDS011;4739;49.334;8.792;2022-09-13T09:41:43;5.20;;;3.63;;
9398;SDS011;4739;49.334;8.792;2022-09-13T09:46:36;5.47;;;4.00;;
9398;SDS011;4739;49.334;8.792;2022-09-13T09:49:16;7.33;;;3.73;;
9398;SDS011;4739;49.334;8.792;2022-09-13T09:52:01;6.60;;;4.10;;
9398;SDS011;4739;49.334;8.792;2022-09-13T09:54:33;5.67;;;3.93;;
9398;SDS011;4739;49.334;8.792;2022-09-13T09:57:01;6.83;;;3.70;;
9398;SDS011;4739;49.334;8.792;2022-09-13T09:59:31;4.40;;;3.97;;
9398;SDS011;4739;49.334;8.792;2022-09-13T10:01:58;5.20;;;3.50;;
9398;SDS011;4739;49.334;8.792;2022-09-13T10:04:25;4.87;;;3.87;;
9398;SDS011;4739;49.334;8.792;2022-09-13T10:09:37;4.00;;;3.60;;
9398;SDS011;4739;49.334;8.792;2022-09-13T10:12:04;3.80;;;3.27;;
9398;SDS011;4739;49.334;8.792;2022-09-13T10:14:41;5.53;;;3.30;;
9398;SDS011;4739;49.334;8.792;2022-09-13T10:19:41;4.27;;;3.60;;
9398;SDS011;4739;49.334;8.792;2022-09-13T10:22:16;4.60;;;3.47;;
9398;SDS011;4739;49.334;8.792;2022-09-13T10:24:42;7.20;;;3.50;;
9398;SDS011;4739;49.334;8.792;2022-09-13T10:29:54;9.70;;;3.43;;
9398;SDS011;4739;49.334;8.792;2022-09-13T10:32:23;4.97;;;3.60;;
9398;SDS011;4739;49.334;8.792;2022-09-13T10:34:49;6.60;;;3.58;;
9398;SDS011;4739;49.334;8.792;2022-09-13T10:37:16;10.55;;;3.83;;
9398;SDS011;4739;49.334;8.792;2022-09-13T10:42:18;10.93;;;3.47;;
9398;SDS011;4739;49.334;8.792;2022-09-13T10:44:57;8.50;;;3.40;;
9398;SDS011;4739;49.334;8.792;2022-09-13T10:47:25;9.53;;;3.17;;
9398;SDS011;4739;49.334;8.792;2022-09-13T10:49:53;5.85;;;3.35;;
9398;SDS011;4739;49.334;8.792;2022-09-13T10:52:30;8.27;;;3.15;;
9398;SDS011;4739;49.334;8.792;2022-09-13T10:57:42;4.57;;;2.25;;
9398;SDS011;4739;49.334;8.792;2022-09-13T11:00:10;3.72;;;2.53;;
9398;SDS011;4739;49.334;8.792;2022-09-13T11:10:07;3.90;;;2.03;;
9398;SDS011;4739;49.334;8.792;2022-09-13T11:25:20;3.63;;;2.63;;
9398;SDS011;4739;49.334;8.792;2022-09-13T11:37:05;2.60;;;2.30;;
9398;SDS011;4739;49.334;8.792;2022-09-13T11:57:13;3.17;;;2.20;;
9398;SDS011;4739;49.334;8.792;2022-09-13T12:02:17;4.13;;;2.92;;
9398;SDS011;4739;49.334;8.792;2022-09-13T12:07:39;3.03;;;2.13;;
9398;SDS011;4739;49.334;8.792;2022-09-13T12:10:12;5.05;;;2.50;;
9398;SDS011;4739;49.334;8.792;2022-09-13T12:12:39;5.55;;;2.30;;
9398;SDS011;4739;49.334;8.792;2022-09-13T12:15:07;4.57;;;2.85;;
9398;SDS011;4739;49.334;8.792;2022-09-13T12:20:05;5.68;;;2.30;;
9398;SDS011;4739;49.334;8.792;2022-09-13T12:22:37;6.13;;;2.30;;
9398;SDS011;4739;49.334;8.792;2022-09-13T12:25:04;4.63;;;2.50;;
9398;SDS011;4739;49.334;8.792;2022-09-13T12:27:42;6.80;;;2.45;;
9398;SDS011;4739;49.334;8.792;2022-09-13T12:30:20;7.70;;;2.22;;
9398;SDS011;4739;49.334;8.792;2022-09-13T12:32:47;5.53;;;2.30;;
9398;SDS011;4739;49.334;8.792;2022-09-13T12:35:19;10.98;;;2.60;;
9398;SDS011;4739;49.334;8.792;2022-09-13T12:43:23;6.47;;;2.35;;
9398;SDS011;4739;49.334;8.792;2022-09-13T12:56:15;6.75;;;2.05;;
9398;SDS011;4739;49.334;8.792;2022-09-13T12:58:53;8.35;;;2.03;;
9398;SDS011;4739;49.334;8.792;2022-09-13T13:01:24;5.60;;;2.30;;
9398;SDS011;4739;49.334;8.792;2022-09-13T13:09:00;9.55;;;2.65;;
9398;SDS011;4739;49.334;8.792;2022-09-13T13:11:27;5.75;;;2.58;;
9398;SDS011;4739;49.334;8.792;2022-09-13T13:13:56;7.57;;;2.50;;
9398;SDS011;4739;49.334;8.792;2022-09-13T13:18:52;3.30;;;2.22;;
9398;SDS011;4739;49.334;8.792;2022-09-13T13:21:29;4.38;;;2.33;;
9398;SDS011;4739;49.334;8.792;2022-09-13T13:29:21;6.43;;;2.35;;
9398;SDS011;4739;49.334;8.792;2022-09-13T13:37:23;2.10;;;1.90;;
9398;SDS011;4739;49.334;8.792;2022-09-13T13:40:09;2.72;;;2.38;;
9398;SDS011;4739;49.334;8.792;2022-09-13T13:42:36;4.65;;;2.10;;
9398;SDS011;4739;49.334;8.792;2022-09-13T13:48:09;4.82;;;1.90;;
9398;SDS011;4739;49.334;8.792;2022-09-13T13:50:58;2.95;;;1.58;;
9398;SDS011;4739;49.334;8.792;2022-09-13T13:53:31;3.65;;;1.85;;
9398;SDS011;4739;49.334;8.792;2022-09-13T13:56:16;3.90;;;2.00;;
9398;SDS011;4739;49.334;8.792;2022-09-13T13:58:48;2.22;;;2.03;;
9398;SDS011;4739;49.334;8.792;2022-09-13T14:01:19;3.75;;;2.00;;
9398;SDS011;4739;49.334;8.792;2022-09-13T14:06:32;3.10;;;2.22;;
9398;SDS011;4739;49.334;8.792;2022-09-13T14:09:45;5.07;;;2.15;;
9398;SDS011;4739;49.334;8.792;2022-09-13T14:19:29;3.05;;;2.10;;
9398;SDS011;4739;49.334;8.792;2022-09-13T14:22:11;4.43;;;2.17;;
9398;SDS011;4739;49.334;8.792;2022-09-13T14:24:39;3.75;;;2.28;;
9398;SDS011;4739;49.334;8.792;2022-09-13T14:27:09;3.80;;;2.08;;
9398;SDS011;4739;49.334;8.792;2022-09-13T14:29:38;2.30;;;2.10;;
9398;SDS011;4739;49.334;8.792;2022-09-13T14:32:05;3.72;;;2.30;;
9398;SDS011;4739;49.334;8.792;2022-09-13T14:34:35;3.65;;;2.30;;
9398;SDS011;4739;49.334;8.792;2022-09-13T14:37:14;5.95;;;2.28;;
9398;SDS011;4739;49.334;8.792;2022-09-13T14:39:57;4.65;;;2.20;;
9398;SDS011;4739;49.334;8.792;2022-09-13T14:42:24;2.75;;;1.92;;
9398;SDS011;4739;49.334;8.792;2022-09-13T14:44:51;2.78;;;1.95;;
9398;SDS011;4739;49.334;8.792;2022-09-13T14:47:26;4.88;;;2.53;;
9398;SDS011;4739;49.334;8.792;2022-09-13T14:49:57;3.90;;;2.10;;
9398;SDS011;4739;49.334;8.792;2022-09-13T14:52:29;2.58;;;2.17;;
9398;SDS011;4739;49.334;8.792;2022-09-13T14:54:57;4.20;;;2.40;;
9398;SDS011;4739;49.334;8.792;2022-09-13T14:57:31;2.97;;;2.30;;
9398;SDS011;4739;49.334;8.792;2022-09-13T15:00:00;3.47;;;2.45;;
9398;SDS011;4739;49.334;8.792;2022-09-13T15:02:34;4.10;;;2.38;;
9398;SDS011;4739;49.334;8.792;2022-09-13T15:05:02;3.03;;;2.20;;
9398;SDS011;4739;49.334;8.792;2022-09-13T15:07:36;2.83;;;2.05;;
9398;SDS011;4739;49.334;8.792;2022-09-13T15:10:19;2.72;;;2.30;;
9398;SDS011;4739;49.334;8.792;2022-09-13T15:12:49;3.63;;;2.30;;
9398;SDS011;4739;49.334;8.792;2022-09-13T15:17:54;2.90;;;2.40;;
9398;SDS011;4739;49.334;8.792;2022-09-13T15:20:21;2.33;;;2.13;;
9398;SDS011;4739;49.334;8.792;2022-09-13T15:22:47;3.63;;;2.63;;
9398;SDS011;4739;49.334;8.792;2022-09-13T15:25:22;3.75;;;2.20;;
9398;SDS011;4739;49.334;8.792;2022-09-13T15:27:49;2.92;;;2.30;;
9398;SDS011;4739;49.334;8.792;2022-09-13T15:30:19;2.20;;;2.00;;
9398;SDS011;4739;49.334;8.792;2022-09-13T15:32:45;2.58;;;2.38;;
9398;SDS011;4739;49.334;8.792;2022-09-13T15:35:21;2.35;;;2.15;;
9398;SDS011;4739;49.334;8.792;2022-09-13T15:37:57;3.00;;;2.33;;
9398;SDS011;4739;49.334;8.792;2022-09-13T15:40:23;5.85;;;2.30;;
9398;SDS011;4739;49.334;8.792;2022-09-13T15:42:50;4.18;;;2.30;;
9398;SDS011;4739;49.334;8.792;2022-09-13T15:45:17;3.55;;;2.72;;
9398;SDS011;4739;49.334;8.792;2022-09-13T15:47:44;3.53;;;2.80;;
9398;SDS011;4739;49.334;8.792;2022-09-13T15:50:21;5.53;;;2.75;;
9398;SDS011;4739;49.334;8.792;2022-09-13T15:52:47;3.88;;;2.33;;
9398;SDS011;4739;49.334;8.792;2022-09-13T15:55:13;3.25;;;2.22;;
9398;SDS011;4739;49.334;8.792;2022-09-13T15:57:39;2.70;;;2.50;;
9398;SDS011;4739;49.334;8.792;2022-09-13T16:00:05;2.83;;;2.55;;
9398;SDS011;4739;49.334;8.792;2022-09-13T16:02:32;4.50;;;2.47;;
9398;SDS011;4739;49.334;8.792;2022-09-13T16:04:59;2.92;;;2.00;;
9398;SDS011;4739;49.334;8.792;2022-09-13T16:07:25;2.38;;;2.00;;
9398;SDS011;4739;49.334;8.792;2022-09-13T16:09:52;4.13;;;2.30;;
9398;SDS011;4739;49.334;8.792;2022-09-13T16:12:18;3.17;;;2.03;;
9398;SDS011;4739;49.334;8.792;2022-09-13T16:14:47;3.72;;;2.15;;
9398;SDS011;4739;49.334;8.792;2022-09-13T16:17:23;2.83;;;2.15;;
9398;SDS011;4739;49.334;8.792;2022-09-13T16:19:49;4.93;;;2.63;;
9398;SDS011;4739;49.334;8.792;2022-09-13T16:22:15;8.13;;;2.70;;
9398;SDS011;4739;49.334;8.792;2022-09-13T16:24:41;6.30;;;2.80;;
9398;SDS011;4739;49.334;8.792;2022-09-13T16:27:08;6.03;;;2.80;;
9398;SDS011;4739;49.334;8.792;2022-09-13T16:29:34;4.28;;;2.80;;
9398;SDS011;4739;49.334;8.792;2022-09-13T16:32:00;3.20;;;2.90;;
9398;SDS011;4739;49.334;8.792;2022-09-13T16:34:26;5.40;;;2.90;;
9398;SDS011;4739;49.334;8.792;2022-09-13T16:36:52;4.50;;;3.08;;
9398;SDS011;4739;49.334;8.792;2022-09-13T16:39:18;5.18;;;3.13;;
9398;SDS011;4739;49.334;8.792;2022-09-13T16:41:44;4.22;;;3.00;;
9398;SDS011;4739;49.334;8.792;2022-09-13T16:44:10;6.03;;;3.20;;
9398;SDS011;4739;49.334;8.792;2022-09-13T16:46:38;4.38;;;3.20;;
9398;SDS011;4739;49.334;8.792;2022-09-13T16:49:04;6.22;;;2.88;;
9398;SDS011;4739;49.334;8.792;2022-09-13T16:51:30;4.22;;;3.55;;
9398;SDS011;4739;49.334;8.792;2022-09-13T16:53:56;5.25;;;3.30;;
9398;SDS011;4739;49.334;8.792;2022-09-13T16:56:23;6.28;;;3.42;;
9398;SDS011;4739;49.334;8.792;2022-09-13T16:58:50;5.45;;;3.00;;
9398;SDS011;4739;49.334;8.792;2022-09-13T17:01:18;5.20;;;2.92;;
9398;SDS011;4739;49.334;8.792;2022-09-13T17:03:45;5.40;;;3.40;;
9398;SDS011;4739;49.334;8.792;2022-09-13T17:06:12;6.38;;;2.80;;
9398;SDS011;4739;49.334;8.792;2022-09-13T17:08:39;5.35;;;2.70;;
9398;SDS011;4739;49.334;8.792;2022-09-13T17:11:05;5.85;;;3.03;;
9398;SDS011;4739;49.334;8.792;2022-09-13T17:13:32;6.18;;;3.22;;
9398;SDS011;4739;49.334;8.792;2022-09-13T17:15:58;4.85;;;2.92;;
9398;SDS011;4739;49.334;8.792;2022-09-13T17:18:24;4.07;;;2.80;;
9398;SDS011;4739;49.334;8.792;2022-09-13T17:20:50;5.85;;;3.30;;
9398;SDS011;4739;49.334;8.792;2022-09-13T17:23:16;6.97;;;3.58;;
9398;SDS011;4739;49.334;8.792;2022-09-13T17:25:43;6.20;;;3.30;;
9398;SDS011;4739;49.334;8.792;2022-09-13T17:28:14;5.73;;;3.13;;
9398;SDS011;4739;49.334;8.792;2022-09-13T17:30:40;7.03;;;3.30;;
9398;SDS011;4739;49.334;8.792;2022-09-13T17:33:07;9.00;;;3.13;;
9398;SDS011;4739;49.334;8.792;2022-09-13T17:35:33;4.93;;;3.40;;
9398;SDS011;4739;49.334;8.792;2022-09-13T17:37:59;6.03;;;3.03;;
9398;SDS011;4739;49.334;8.792;2022-09-13T17:40:26;5.50;;;3.40;;
9398;SDS011;4739;49.334;8.792;2022-09-13T17:42:52;5.10;;;2.77;;
9398;SDS011;4739;49.334;8.792;2022-09-13T17:45:18;5.00;;;2.83;;
9398;SDS011;4739;49.334;8.792;2022-09-13T17:47:45;6.03;;;3.30;;
9398;SDS011;4739;49.334;8.792;2022-09-13T17:50:11;5.27;;;3.20;;
9398;SDS011;4739;49.334;8.792;2022-09-13T17:52:37;3.97;;;3.07;;
9398;SDS011;4739;49.334;8.792;2022-09-13T17:55:03;5.07;;;3.10;;
9398;SDS011;4739;49.334;8.792;2022-09-13T17:57:29;4.17;;;3.10;;
9398;SDS011;4739;49.334;8.792;2022-09-13T17:59:55;6.40;;;3.03;;
9398;SDS011;4739;49.334;8.792;2022-09-13T18:02:21;6.17;;;3.57;;
9398;SDS011;4739;49.334;8.792;2022-09-13T18:04:48;5.10;;;3.10;;
9398;SDS011;4739;49.334;8.792;2022-09-13T18:07:14;3.40;;;3.10;;
9398;SDS011;4739;49.334;8.792;2022-09-13T18:09:40;3.73;;;3.33;;
9398;SDS011;4739;49.334;8.792;2022-09-13T18:12:07;4.13;;;3.00;;
9398;SDS011;4739;49.334;8.792;2022-09-13T18:14:33;4.50;;;3.37;;
9398;SDS011;4739;49.334;8.792;2022-09-13T18:16:59;4.13;;;3.13;;
9398;SDS011;4739;49.334;8.792;2022-09-13T18:19:25;4.07;;;3.37;;
9398;SDS011;4739;49.334;8.792;2022-09-13T18:21:51;5.77;;;3.53;;
9398;SDS011;4739;49.334;8.792;2022-09-13T18:24:18;5.33;;;3.20;;
9398;SDS011;4739;49.334;8.792;2022-09-13T18:26:44;4.60;;;3.27;;
9398;SDS011;4739;49.334;8.792;2022-09-13T18:29:12;6.03;;;3.23;;
9398;SDS011;4739;49.334;8.792;2022-09-13T18:31:38;4.53;;;3.33;;
9398;SDS011;4739;49.334;8.792;2022-09-13T18:34:06;7.00;;;3.10;;
9398;SDS011;4739;49.334;8.792;2022-09-13T18:36:33;5.03;;;3.47;;
9398;SDS011;4739;49.334;8.792;2022-09-13T18:38:59;3.77;;;3.20;;